Ilyas Efendiyev — 9HES8 — position and weather

sailwx.info

Track history (hours):
 
Tides and Currents Weather Stations Pressure Air Temp Water Temp Dewpoint Dewpoint Depression Visibility Wind Speed Wind Dir Waves Ship Positions

Ilyas Efendiyev

Last reported at 2016-May-05 20:33 UTC. Time now 2016-May-06 18:45 UTC.
Position N 35°55' W 005°15'.

Length 307 m; draft 4.3 m.

Type: Cargo ship. MMSI: 215901000.

Date/timePositionNaut miles runAvg speedWind from/ knotsBaromVisibWave heightAir tempDewpointWater temp
2016-May-05 20:33N 35°55' W 005°15'3 0.5
2016-May-05 15:09N 35°54' W 005°18'0 0.6
2016-May-05 14:34N 35°54' W 005°18'1 0.6
2016-May-05 13:32N 35°55' W 005°18'1 0.6
2016-May-05 12:33N 35°55' W 005°19'1 0.6
2016-May-05 10:11N 35°55' W 005°20'2 2.7
2016-May-05 09:33N 35°56' W 005°22'221 6.1
2016-May-03 21:32N 37°14' W 009°40'9 8.9
2016-May-03 20:32N 37°23' W 009°42'9 9.1
2016-May-03 19:33N 37°32' W 009°45'9 8.9
2016-May-03 18:31N 37°41' W 009°48'20 9.4
2016-May-03 16:25N 37°60' W 009°53'9 9.4
2016-May-03 15:30N 38°08' W 009°56'19 9.6
2016-May-03 13:28N 38°27' W 010°01'9 9.9
2016-May-03 12:33N 38°36' W 010°04'21 9.7
2016-May-03 10:24N 38°57' W 010°06'  
2016-Apr-30 02:15N 49°51' W 003°25'7 9.4
2016-Apr-30 01:33N 49°54' W 003°16'9 9.0
2016-Apr-30 00:30N 49°59' W 003°03'106 8.7
2016-Apr-29 12:20N 50°27' W 000°24'6 7.3
2016-Apr-29 11:32N 50°28' W 000°16'9 7.8
2016-Apr-29 10:26N 50°31' W 000°03'8 8.5
2016-Apr-29 09:30N 50°33' E 000°09'44 8.5
2016-Apr-29 04:22N 50°55' E 001°09'5 6.8
2016-Apr-29 03:34N 50°58' E 001°16'6 6.2
2016-Apr-29 02:33N 51°02' E 001°23'6 6.5
2016-Apr-29 01:33N 51°06' E 001°31'7 7.3
2016-Apr-29 00:32N 51°11' E 001°40'9 8.9
2016-Apr-28 23:31N 51°18' E 001°49'9 9.3
2016-Apr-28 22:32N 51°25' E 001°60'9 8.6
2016-Apr-28 21:32N 51°22' E 002°13'9 8.6
2016-Apr-28 20:27N 51°23' E 002°28'8 8.7
2016-Apr-28 19:33N 51°23' E 002°40'9 8.0
2016-Apr-28 18:25N 51°23' E 002°55'16 8.2
2016-Apr-28 16:26N 51°24' E 003°21'6 6.9
2016-Apr-28 15:30N 51°25' E 003°31'6 6.7
2016-Apr-28 14:32N 51°24' E 003°41'7 6.4
2016-Apr-28 13:30N 51°20' E 003°49'1 0.6
2016-Apr-28 12:14N 51°19' E 003°50'4 5.4
2016-Apr-28 11:34N 51°15' E 003°50'7 6.7
2016-Apr-28 10:34N 51°09' E 003°47'0 0.2
2016-Apr-28 09:33N 51°09' E 003°48'0 0.0
2016-Apr-28 08:30N 51°09' E 003°48'0 0.0
2016-Apr-28 07:32N 51°09' E 003°48'0 0.0
2016-Apr-28 06:31N 51°09' E 003°48'0 0.0
2016-Apr-28 05:29N 51°09' E 003°48'0 0.0
2016-Apr-28 04:33N 51°09' E 003°48'0 0.0
2016-Apr-28 03:33N 51°09' E 003°48'0 0.0
2016-Apr-28 02:33N 51°09' E 003°48'0 0.0
2016-Apr-28 01:32N 51°09' E 003°48'0 0.0
2016-Apr-28 00:31N 51°09' E 003°48'0 0.0
2016-Apr-27 23:32N 51°09' E 003°48'0 0.0
2016-Apr-27 22:33N 51°09' E 003°48'0 0.0
2016-Apr-27 21:26N 51°09' E 003°48'0 0.0
2016-Apr-27 20:32N 51°09' E 003°48'0 0.0
2016-Apr-27 19:30N 51°09' E 003°48'0 0.0
2016-Apr-27 18:32N 51°09' E 003°48'0 0.0
2016-Apr-27 17:31N 51°09' E 003°48'0 0.0
2016-Apr-27 16:31N 51°09' E 003°48'0 0.0
2016-Apr-27 15:32N 51°09' E 003°48'0 0.0
2016-Apr-27 14:29N 51°09' E 003°48'0 0.0
2016-Apr-27 13:33N 51°09' E 003°48'0 0.0
2016-Apr-27 12:27N 51°09' E 003°48'0 0.0
2016-Apr-27 11:32N 51°09' E 003°48'0 0.0
2016-Apr-27 10:31N 51°09' E 003°48'0 0.0
2016-Apr-27 09:30N 51°09' E 003°48'0 0.0
2016-Apr-27 08:31N 51°09' E 003°48'0 0.0
2016-Apr-27 07:31N 51°09' E 003°48'0 0.0
2016-Apr-27 06:29N 51°09' E 003°48'0 0.0
2016-Apr-27 05:33N 51°09' E 003°48'0 0.0
2016-Apr-27 04:33N 51°09' E 003°48'0 0.0
2016-Apr-27 03:32N 51°09' E 003°48'0 0.0
2016-Apr-27 02:32N 51°09' E 003°48'0 0.0
2016-Apr-27 01:31N 51°09' E 003°48'0 0.0
2016-Apr-27 00:31N 51°09' E 003°48'0 0.0
2016-Apr-26 23:31N 51°09' E 003°48'0 0.0
2016-Apr-26 22:32N 51°09' E 003°48'0 0.0
2016-Apr-26 21:31N 51°09' E 003°48'0 0.0
2016-Apr-26 20:30N 51°09' E 003°48'0 0.0
2016-Apr-26 19:31N 51°09' E 003°48'0 0.0
2016-Apr-26 18:33N 51°09' E 003°48'0 0.0
2016-Apr-26 17:33N 51°09' E 003°48'0 0.0
2016-Apr-26 16:29N 51°09' E 003°48'0 0.0
2016-Apr-26 15:33N 51°09' E 003°48'0 0.0
2016-Apr-26 14:26N 51°09' E 003°48'0 0.0
2016-Apr-26 13:32N 51°09' E 003°48'0 0.0
2016-Apr-26 12:33N 51°09' E 003°48'0 0.0
2016-Apr-26 11:33N 51°09' E 003°48'0 0.0
2016-Apr-26 10:28N 51°09' E 003°48'0 0.0
2016-Apr-26 09:34N 51°09' E 003°48'0 0.0
2016-Apr-26 08:27N 51°09' E 003°48'0 0.0
2016-Apr-26 07:33N 51°09' E 003°48'0 0.0
2016-Apr-26 06:27N 51°09' E 003°48'0 0.0
2016-Apr-26 05:31N 51°09' E 003°48'0 0.0
2016-Apr-26 04:28N 51°09' E 003°48'0 0.0
2016-Apr-26 03:31N 51°09' E 003°48'0 0.0
2016-Apr-26 02:28N 51°09' E 003°48'0 0.0
2016-Apr-26 01:26N 51°09' E 003°48'0 0.0
2016-Apr-26 00:33N 51°09' E 003°48'0 0.0
2016-Apr-25 23:29N 51°09' E 003°48'0 0.0
2016-Apr-25 22:27N 51°09' E 003°48'0 0.0
2016-Apr-25 21:25N 51°09' E 003°48'  
Track history (hours):
 
Tides and Currents Weather Stations Pressure Air Temp Water Temp Dewpoint Dewpoint Depression Visibility Wind Speed Wind Dir Waves Ship Positions

Ilyas Efendiyev

Last reported at 2016-May-05 20:33 UTC. Time now 2016-May-06 18:45 UTC.
Position N 35°55' W 005°15'.

Length 307 m; draft 4.3 m.

Type: Cargo ship. MMSI: 215901000.

Date/timePositionNaut miles runAvg speedWind from/ knotsBaromVisibWave heightAir tempDewpointWater temp
2016-May-05 20:33N 35°55' W 005°15'3 0.5
2016-May-05 15:09N 35°54' W 005°18'0 0.6
2016-May-05 14:34N 35°54' W 005°18'1 0.6
2016-May-05 13:32N 35°55' W 005°18'1 0.6
2016-May-05 12:33N 35°55' W 005°19'1 0.6
2016-May-05 10:11N 35°55' W 005°20'2 2.7
2016-May-05 09:33N 35°56' W 005°22'221 6.1
2016-May-03 21:32N 37°14' W 009°40'9 8.9
2016-May-03 20:32N 37°23' W 009°42'9 9.1
2016-May-03 19:33N 37°32' W 009°45'9 8.9
2016-May-03 18:31N 37°41' W 009°48'20 9.4
2016-May-03 16:25N 37°60' W 009°53'9 9.4
2016-May-03 15:30N 38°08' W 009°56'19 9.6
2016-May-03 13:28N 38°27' W 010°01'9 9.9
2016-May-03 12:33N 38°36' W 010°04'21 9.7
2016-May-03 10:24N 38°57' W 010°06'  
2016-Apr-30 02:15N 49°51' W 003°25'7 9.4
2016-Apr-30 01:33N 49°54' W 003°16'9 9.0
2016-Apr-30 00:30N 49°59' W 003°03'106 8.7
2016-Apr-29 12:20N 50°27' W 000°24'6 7.3
2016-Apr-29 11:32N 50°28' W 000°16'9 7.8
2016-Apr-29 10:26N 50°31' W 000°03'8 8.5
2016-Apr-29 09:30N 50°33' E 000°09'44 8.5
2016-Apr-29 04:22N 50°55' E 001°09'5 6.8
2016-Apr-29 03:34N 50°58' E 001°16'6 6.2
2016-Apr-29 02:33N 51°02' E 001°23'6 6.5
2016-Apr-29 01:33N 51°06' E 001°31'7 7.3
2016-Apr-29 00:32N 51°11' E 001°40'9 8.9
2016-Apr-28 23:31N 51°18' E 001°49'9 9.3
2016-Apr-28 22:32N 51°25' E 001°60'9 8.6
2016-Apr-28 21:32N 51°22' E 002°13'9 8.6
2016-Apr-28 20:27N 51°23' E 002°28'8 8.7
2016-Apr-28 19:33N 51°23' E 002°40'9 8.0
2016-Apr-28 18:25N 51°23' E 002°55'16 8.2
2016-Apr-28 16:26N 51°24' E 003°21'6 6.9
2016-Apr-28 15:30N 51°25' E 003°31'6 6.7
2016-Apr-28 14:32N 51°24' E 003°41'7 6.4
2016-Apr-28 13:30N 51°20' E 003°49'1 0.6
2016-Apr-28 12:14N 51°19' E 003°50'4 5.4
2016-Apr-28 11:34N 51°15' E 003°50'7 6.7
2016-Apr-28 10:34N 51°09' E 003°47'0 0.2
2016-Apr-28 09:33N 51°09' E 003°48'0 0.0
2016-Apr-28 08:30N 51°09' E 003°48'0 0.0
2016-Apr-28 07:32N 51°09' E 003°48'0 0.0
2016-Apr-28 06:31N 51°09' E 003°48'0 0.0
2016-Apr-28 05:29N 51°09' E 003°48'0 0.0
2016-Apr-28 04:33N 51°09' E 003°48'0 0.0
2016-Apr-28 03:33N 51°09' E 003°48'0 0.0
2016-Apr-28 02:33N 51°09' E 003°48'0 0.0
2016-Apr-28 01:32N 51°09' E 003°48'0 0.0
2016-Apr-28 00:31N 51°09' E 003°48'0 0.0
2016-Apr-27 23:32N 51°09' E 003°48'0 0.0
2016-Apr-27 22:33N 51°09' E 003°48'0 0.0
2016-Apr-27 21:26N 51°09' E 003°48'0 0.0
2016-Apr-27 20:32N 51°09' E 003°48'0 0.0
2016-Apr-27 19:30N 51°09' E 003°48'0 0.0
2016-Apr-27 18:32N 51°09' E 003°48'0 0.0
2016-Apr-27 17:31N 51°09' E 003°48'0 0.0
2016-Apr-27 16:31N 51°09' E 003°48'0 0.0
2016-Apr-27 15:32N 51°09' E 003°48'0 0.0
2016-Apr-27 14:29N 51°09' E 003°48'0 0.0
2016-Apr-27 13:33N 51°09' E 003°48'0 0.0
2016-Apr-27 12:27N 51°09' E 003°48'0 0.0
2016-Apr-27 11:32N 51°09' E 003°48'0 0.0
2016-Apr-27 10:31N 51°09' E 003°48'0 0.0
2016-Apr-27 09:30N 51°09' E 003°48'0 0.0
2016-Apr-27 08:31N 51°09' E 003°48'0 0.0
2016-Apr-27 07:31N 51°09' E 003°48'0 0.0
2016-Apr-27 06:29N 51°09' E 003°48'0 0.0
2016-Apr-27 05:33N 51°09' E 003°48'0 0.0
2016-Apr-27 04:33N 51°09' E 003°48'0 0.0
2016-Apr-27 03:32N 51°09' E 003°48'0 0.0
2016-Apr-27 02:32N 51°09' E 003°48'0 0.0
2016-Apr-27 01:31N 51°09' E 003°48'0 0.0
2016-Apr-27 00:31N 51°09' E 003°48'0 0.0
2016-Apr-26 23:31N 51°09' E 003°48'0 0.0
2016-Apr-26 22:32N 51°09' E 003°48'0 0.0
2016-Apr-26 21:31N 51°09' E 003°48'0 0.0
2016-Apr-26 20:30N 51°09' E 003°48'0 0.0
2016-Apr-26 19:31N 51°09' E 003°48'0 0.0
2016-Apr-26 18:33N 51°09' E 003°48'0 0.0
2016-Apr-26 17:33N 51°09' E 003°48'0 0.0
2016-Apr-26 16:29N 51°09' E 003°48'0 0.0
2016-Apr-26 15:33N 51°09' E 003°48'0 0.0
2016-Apr-26 14:26N 51°09' E 003°48'0 0.0
2016-Apr-26 13:32N 51°09' E 003°48'0 0.0
2016-Apr-26 12:33N 51°09' E 003°48'0 0.0
2016-Apr-26 11:33N 51°09' E 003°48'0 0.0
2016-Apr-26 10:28N 51°09' E 003°48'0 0.0
2016-Apr-26 09:34N 51°09' E 003°48'0 0.0
2016-Apr-26 08:27N 51°09' E 003°48'0 0.0
2016-Apr-26 07:33N 51°09' E 003°48'0 0.0
2016-Apr-26 06:27N 51°09' E 003°48'0 0.0
2016-Apr-26 05:31N 51°09' E 003°48'0 0.0
2016-Apr-26 04:28N 51°09' E 003°48'0 0.0
2016-Apr-26 03:31N 51°09' E 003°48'0 0.0
2016-Apr-26 02:28N 51°09' E 003°48'0 0.0
2016-Apr-26 01:26N 51°09' E 003°48'0 0.0
2016-Apr-26 00:33N 51°09' E 003°48'0 0.0
2016-Apr-25 23:29N 51°09' E 003°48'0 0.0
2016-Apr-25 22:27N 51°09' E 003°48'0 0.0
2016-Apr-25 21:25N 51°09' E 003°48'  

Dump ship's entire track history